Grand Junction, CO

11:42 AM MST on December 22, 2014 (GMT -0700)
HADS GUNNISON RIVER BELOW REDLANDS DI CO US CODWR | Change Station
CLOSE
Current Station
Personal Weather Station
Location: Grand Junction, CO
Elevation: 4548 ft
Nearby Weather Stations

Elev 4548 ft 39.04 °N, 108.57 °W | Updated 1 hour ago

Overcast
Overcast
36 °F
Feels Like 36 °F
N
Wind Variable Wind from North
Gusts 0.0 mph

Today
High -- | Low -- °F
--% Chance of Precip.
Yesterday
High -- | Low -- °F
Precip. -- in
7:30 AM 4:55 PM
New Moon, 1% visible
Pressure 29.85 in
Visibility 9.0 miles
Clouds Mostly Cloudy 4000 ft
Overcast 6500 ft
Windchill 36 °F
Dew Point Not available.
Humidity Not available.
Rainfall -999.00 in
Snow Depth Not available.
UV 1 out of 12
Pollen .10 out of 12
Air Quality Not available.
Flu Activity Not available.
METAR KGJT 221753Z 21003KT 9SM BKN040 OVC065 02/02 A2985

More Conditions Fewer Conditions

Pressure 29.85 in
Visibility 9.0 miles
Clouds Mostly Cloudy 4000 ft
Overcast 6500 ft
Windchill 36 °F
Dew Point Not available.
Humidity Not available.
Rainfall -999.00 in
Snow Depth Not available.
UV 1 out of 12
Pollen .10 out of 12
Air Quality Not available.
Flu Activity Not available.
METAR KGJT 221753Z 21003KT 9SM BKN040 OVC065 02/02 A2985

More Conditions Fewer Conditions

10-Day Weather Forecast

Almanac

Astronomy

Dec. 22, 2014 Rise Set
Actual Time
Civil Twilight
Nautical Twilight
Astronomical Twilight
Moon
Length of Visible Light
Length of Day
Tomorrow will be .
, % of the Moon is Illuminated

Today's Extremes

State Highs State Lows

Community

WunderPhotos

Upload Photos

1,779,687 photos uploaded!

WunderBlogs® & News

Nearby

Air Quality

  Air Quality AQ Index Pollutant
Not available.

Snow Depth

Station Depth Elevation

Earthquake Activity

City Distance Mag. Time & Date
Minimum magnitude displayed is 2.5.

Coastal Water Temperatures

Place Temperature

Nearby Weather Stations